createdAt,value
2022-08-25T00:00:24.170Z,99865.63
2022-08-25T00:02:57.749Z,99867.09
2022-08-25T00:05:33.426Z,99873.03
2022-08-25T00:08:03.052Z,99861.88
2022-08-25T00:10:33.795Z,99870.69
2022-08-25T00:13:06.977Z,99870.69
2022-08-25T00:15:36.866Z,99871.63
2022-08-25T00:18:11.503Z,99868.13
2022-08-25T00:20:49.787Z,99872.41
2022-08-25T00:23:19.071Z,99870.09
2022-08-25T00:25:48.271Z,99870.97
2022-08-25T00:28:19.319Z,99874.25
2022-08-25T00:30:49.840Z,99871.81
2022-08-25T00:33:19.548Z,99863.03
2022-08-25T00:35:48.774Z,99874.97
2022-08-25T00:38:18.145Z,99871.75
2022-08-25T00:41:06.577Z,99859.47
2022-08-25T00:43:47.839Z,99872.25
2022-08-25T00:46:22.738Z,99864.31
2022-08-25T00:48:57.994Z,99864.75
2022-08-25T00:51:34.447Z,99869.69
2022-08-25T00:54:04.544Z,99863.59
2022-08-25T00:56:35.067Z,99869.47
2022-08-25T00:59:06.839Z,99861.91
2022-08-25T01:01:36.171Z,99857.88
2022-08-25T01:04:05.870Z,99864.94
2022-08-25T01:06:38.531Z,99866.44
2022-08-25T01:09:08.846Z,99864.41
2022-08-25T01:11:38.295Z,99859.25
2022-08-25T01:14:10.163Z,99865.72
2022-08-25T01:16:41.596Z,99858.78
2022-08-25T01:19:15.438Z,99863.38
2022-08-25T01:21:49.744Z,99851.44
2022-08-25T01:24:25.161Z,99855.72
2022-08-25T01:26:54.822Z,99858.72
2022-08-25T01:29:25.740Z,99858.06
2022-08-25T01:31:58.140Z,99853.56
2022-08-25T01:34:32.063Z,99852.31
2022-08-25T01:37:03.096Z,99854.81
2022-08-25T01:39:36.821Z,99847.63
2022-08-25T01:42:15.524Z,99852.31
2022-08-25T01:44:46.623Z,99851.72
2022-08-25T01:47:16.500Z,99852.56
2022-08-25T01:49:45.965Z,99850.03
2022-08-25T01:52:21.419Z,99861.34
2022-08-25T01:54:51.357Z,99859.16
2022-08-25T01:57:20.936Z,99864.03
2022-08-25T01:59:50.354Z,99861.72
2022-08-25T02:02:20.916Z,99853.88
2022-08-25T02:04:50.718Z,99858.38
2022-08-25T02:07:22.397Z,99863.41
2022-08-25T02:09:51.587Z,99860.38
2022-08-25T02:12:22.189Z,99866.31
2022-08-25T02:15:12.114Z,99865.47
2022-08-25T02:17:41.464Z,99855.78
2022-08-25T02:20:11.369Z,99869.63
2022-08-25T02:22:43.442Z,99862.34
2022-08-25T02:25:20.862Z,99858.00
2022-08-25T02:27:49.866Z,99866.00
2022-08-25T02:30:19.461Z,99866.84
2022-08-25T02:32:49.159Z,99871.84
2022-08-25T02:35:18.750Z,99860.69
2022-08-25T02:37:51.687Z,99869.81
2022-08-25T02:40:24.788Z,99858.38
2022-08-25T02:42:54.276Z,99857.59
2022-08-25T02:45:23.295Z,99855.66
2022-08-25T02:47:52.905Z,99857.66
2022-08-25T02:50:22.309Z,99856.78
2022-08-25T02:52:52.963Z,99857.66
2022-08-25T02:55:23.915Z,99857.81
2022-08-25T02:57:53.364Z,99864.31
2022-08-25T03:00:22.570Z,99854.13
2022-08-25T03:02:52.572Z,99849.72
2022-08-25T03:05:22.858Z,99855.78
2022-08-25T03:07:54.078Z,99852.34
2022-08-25T03:10:24.427Z,99858.50
2022-08-25T03:12:53.554Z,99853.72
2022-08-25T03:15:26.212Z,99854.94
2022-08-25T03:17:59.927Z,99855.22
2022-08-25T03:20:29.867Z,99856.41
2022-08-25T03:23:00.455Z,99862.63
2022-08-25T03:25:47.266Z,99853.53
2022-08-25T03:28:16.719Z,99855.69
2022-08-25T03:30:45.839Z,99850.13
2022-08-25T03:33:15.567Z,99850.22
2022-08-25T03:35:45.412Z,99856.50
2022-08-25T03:38:17.078Z,99851.19
2022-08-25T03:40:46.477Z,99847.69
2022-08-25T03:43:15.829Z,99848.31
2022-08-25T03:45:47.984Z,99847.00
2022-08-25T03:48:17.931Z,99842.13
2022-08-25T03:50:50.580Z,99845.00
2022-08-25T03:53:22.757Z,99839.31
2022-08-25T03:55:52.293Z,99843.09
2022-08-25T03:58:22.142Z,99844.63
2022-08-25T04:00:51.866Z,99839.13
2022-08-25T04:03:22.421Z,99845.84
2022-08-25T04:05:51.512Z,99836.41
2022-08-25T04:08:22.914Z,99838.47
2022-08-25T04:10:53.635Z,99837.44
2022-08-25T04:13:23.075Z,99833.31
2022-08-25T04:15:52.773Z,99834.84
2022-08-25T04:18:21.928Z,99840.84
2022-08-25T04:20:51.785Z,99833.38
2022-08-25T04:23:22.972Z,99836.97
2022-08-25T04:25:52.294Z,99835.34
2022-08-25T04:28:21.936Z,99828.53
2022-08-25T04:30:52.132Z,99826.28
2022-08-25T04:33:21.879Z,99826.19
2022-08-25T04:35:53.248Z,99826.34
2022-08-25T04:38:24.283Z,99823.66
2022-08-25T04:40:58.394Z,99825.84
2022-08-25T04:43:28.518Z,99824.00
2022-08-25T04:45:58.615Z,99823.41
2022-08-25T04:48:28.218Z,99829.25
2022-08-25T04:50:58.012Z,99824.28
2022-08-25T04:53:31.296Z,99823.31
2022-08-25T04:56:03.876Z,99824.97
2022-08-25T04:58:33.788Z,99825.91
2022-08-25T05:01:07.478Z,99828.06
2022-08-25T05:03:37.143Z,99828.13
2022-08-25T05:06:07.287Z,99830.41
2022-08-25T05:08:39.962Z,99824.75
2022-08-25T05:11:10.472Z,99821.06
2022-08-25T05:13:40.230Z,99822.06
2022-08-25T05:16:11.445Z,99821.41
2022-08-25T05:18:41.563Z,99819.06
2022-08-25T05:21:15.314Z,99816.63
2022-08-25T05:23:47.174Z,99811.97
2022-08-25T05:26:20.657Z,99817.78
2022-08-25T05:28:53.044Z,99817.38
2022-08-25T05:31:26.402Z,99814.88
2022-08-25T05:33:56.236Z,99817.75
2022-08-25T05:36:28.064Z,99816.06
2022-08-25T05:38:58.492Z,99816.88
2022-08-25T05:41:31.281Z,99809.53
2022-08-25T05:44:00.485Z,99813.94
2022-08-25T05:46:31.809Z,99814.88
2022-08-25T05:49:02.400Z,99810.91
2022-08-25T05:51:35.489Z,99812.31
2022-08-25T05:54:09.407Z,99809.09
2022-08-25T05:56:41.347Z,99806.72
2022-08-25T05:59:11.448Z,99813.78
2022-08-25T06:01:59.380Z,99806.44
2022-08-25T06:04:31.681Z,99814.81
2022-08-25T06:07:03.258Z,99811.81
2022-08-25T06:09:35.658Z,99816.81
2022-08-25T06:12:05.762Z,99808.63
2022-08-25T06:14:38.660Z,99810.66
2022-08-25T06:17:08.293Z,99815.25
2022-08-25T06:19:41.278Z,99814.00
2022-08-25T06:22:10.831Z,99809.28
2022-08-25T06:24:41.933Z,99803.03
2022-08-25T06:27:10.988Z,99812.47
2022-08-25T06:29:41.283Z,99808.38
2022-08-25T06:32:12.931Z,99809.59
2022-08-25T06:34:41.980Z,99807.19
2022-08-25T06:37:12.076Z,99808.38
2022-08-25T06:39:43.450Z,99812.09
2022-08-25T06:42:14.407Z,99804.84
2022-08-25T06:44:44.829Z,99809.22
2022-08-25T06:47:15.893Z,99805.25
2022-08-25T06:49:45.292Z,99798.41
2022-08-25T06:52:15.488Z,99793.91
2022-08-25T06:54:47.089Z,99799.06
2022-08-25T06:57:18.650Z,99791.66
2022-08-25T06:59:53.611Z,99803.50
2022-08-25T07:02:23.115Z,99798.69
2022-08-25T07:04:53.922Z,99786.47
2022-08-25T07:07:23.268Z,99800.06
2022-08-25T07:09:55.233Z,99788.75
2022-08-25T07:12:25.109Z,99799.59
2022-08-25T07:15:10.233Z,99799.97
2022-08-25T07:17:49.577Z,99797.00
2022-08-25T07:22:58.267Z,99789.13
2022-08-25T07:25:30.255Z,99798.72
2022-08-25T07:28:02.866Z,99799.06
2022-08-25T07:30:34.235Z,99795.00
2022-08-25T07:33:06.984Z,99791.53
2022-08-25T07:35:38.030Z,99793.97
2022-08-25T07:38:12.579Z,99790.91
2022-08-25T07:40:54.688Z,99790.06
2022-08-25T07:43:26.870Z,99787.16
2022-08-25T07:45:56.182Z,99783.81
2022-08-25T07:48:27.989Z,99794.00
2022-08-25T07:50:58.289Z,99787.41
2022-08-25T07:53:28.129Z,99777.09
2022-08-25T07:55:59.021Z,99765.97
2022-08-25T07:58:29.685Z,99774.41
2022-08-25T08:00:59.742Z,99768.91
2022-08-25T08:03:45.274Z,99774.41
2022-08-25T08:06:20.350Z,99775.31
2022-08-25T08:08:54.703Z,99772.31
2022-08-25T08:11:33.331Z,99775.63
2022-08-25T08:14:03.719Z,99758.41
2022-08-25T08:16:35.138Z,99758.91
2022-08-25T08:19:06.332Z,99768.97
2022-08-25T08:21:37.408Z,99760.44
2022-08-25T08:24:19.558Z,99756.69
2022-08-25T08:27:01.169Z,99751.84
2022-08-25T08:29:31.987Z,99753.19
2022-08-25T08:32:01.839Z,99741.53
2022-08-25T08:34:34.421Z,99752.19
2022-08-25T08:37:05.520Z,99745.53
2022-08-25T08:39:43.289Z,99748.59
2022-08-25T08:42:38.356Z,99739.72
2022-08-25T08:45:28.942Z,99733.50
2022-08-25T08:48:10.228Z,99742.63
2022-08-25T08:50:51.287Z,99731.19
2022-08-25T08:53:24.953Z,99735.75
2022-08-25T08:55:59.503Z,99739.19
